Flight Track Log - Related Links

Times and Time Zones

All times are in EDT time to prevent confusion due to time zone crossing. See the UPS1075 flight status page for this flight to view local times or setup timezone preferences in your user account.


Time Position Orientation Groundspeed Altitude Reporting Facility
EDT Latitude Longitude Course Direction KTS MPH feet Rate Location/Type
Mon 10:56:32 PM 40.7167 -74.1500 347° North 164 189 1,700  Level New York TRACON
Mon 10:58:49 PM 40.8125 -74.1792 347° North 195 224 7,600 2,312 Climbing New York Center
Mon 11:04:45 PM 41.1544 -74.7364 300° West 363 418 20,700 2,189 Climbing FlightAware ADS-B
Mon 11:06:02 PM 41.2148 -74.8755 300° West 371 427 23,400 1,951 Climbing FlightAware ADS-B
Mon 11:06:48 PM 41.2627 -74.9860 300° West 380 437 24,700 1,705 Climbing FlightAware ADS-B
Mon 11:07:30 PM 41.3003 -75.0731 300° West 390 449 25,900 1,551 Climbing FlightAware ADS-B
Mon 11:08:17 PM 41.3410 -75.1678 300° West 398 458 27,000 1,698 Climbing FlightAware ADS-B
Mon 11:11:48 PM 41.4940 -75.6450 279° West 401 461 33,200 1,728 Climbing FlightAware ADS-B
Mon 11:13:40 PM 41.5250 -75.9240 279° West 401 461 36,300 1,446 Climbing FlightAware ADS-B
Mon 11:15:03 PM 41.5477 -76.1316 279° West 411 473 37,900 829 Climbing FlightAware ADS-B (CYYZ)
Mon 11:15:43 PM 41.5575 -76.2224 279° West 419 482 38,000 95 Climbing FlightAware ADS-B (CYYZ)
Mon 11:16:06 PM 41.5650 -76.2930 279° West 420 483 38,000  Level FlightAware ADS-B
Mon 11:16:13 PM 41.5670 -76.3115 279° West 419 482 38,000  Level FlightAware ADS-B (CYYZ)
Mon 11:16:44 PM 41.5751 -76.3870 279° West 415 478 38,000  Level FlightAware ADS-B (CYYZ)
Mon 11:16:47 PM 41.5760 -76.3970 279° West 416 479 38,000  Level FlightAware ADS-B
Mon 11:17:13 PM 41.5832 -76.4642 278° West 411 473 38,000  Level FlightAware ADS-B (CYYZ)
Mon 11:17:30 PM 41.5870 -76.4980 279° West 412 474 38,000  Level FlightAware ADS-B
Mon 11:17:43 PM 41.5912 -76.5400 278° West 409 471 38,000  Level FlightAware ADS-B (CYYZ)
Mon 11:18:00 PM 41.5950 -76.5770 278° West 410 472 38,000  Level FlightAware ADS-B
Mon 11:18:14 PM 41.5990 -76.6151 278° West 408 470 38,000  Level FlightAware ADS-B (CYYZ)
Mon 11:18:30 PM 41.6030 -76.6540 278° West 409 471 38,000  Level FlightAware ADS-B
Mon 11:18:44 PM 41.6068 -76.6905 278° West 407 468 38,000  Level FlightAware ADS-B (CYYZ)
Mon 11:19:11 PM 41.6140 -76.7590 278° West 408 470 38,000  Level FlightAware ADS-B
Mon 11:19:13 PM 41.6144 -76.7647 278° West 406 467 38,000  Level FlightAware ADS-B (CYYZ)
Mon 11:19:44 PM 41.6221 -76.8398 278° West 406 467 38,000  Level FlightAware ADS-B (CYYZ)
Mon 11:19:48 PM 41.6230 -76.8490 278° West 407 468 38,000  Level FlightAware ADS-B
Mon 11:20:14 PM 41.6297 -76.9143 278° West 406 467 38,000  Level FlightAware ADS-B (CYYZ)
Mon 11:20:17 PM 41.6300 -76.9190 278° West 407 468 38,000  Level FlightAware ADS-B
Mon 11:20:44 PM 41.6371 -76.9889 278° West 406 467 38,000  Level FlightAware ADS-B (CYYZ)
Mon 11:20:54 PM 41.6390 -77.0110 278° West 407 468 38,000  Level FlightAware ADS-B
Mon 11:21:13 PM 41.6445 -77.0629 278° West 405 466 38,000  Level FlightAware ADS-B (CYYZ)
Mon 11:21:24 PM 41.6470 -77.0880 278° West 406 467 38,000  Level FlightAware ADS-B
Mon 11:21:44 PM 41.6509 -77.1279 278° West 404 465 38,000  Level FlightAware ADS-B (CYYZ)
Mon 11:22:06 PM 41.6590 -77.1930 280° West 404 465 38,000  Level FlightAware ADS-B
Mon 11:22:19 PM 41.6630 -77.2234 282° West 403 464 38,000  Level FlightAware ADS-B (CYYZ)
Mon 11:22:42 PM 41.6710 -77.2760 282° West 404 465 38,000  Level FlightAware ADS-B
Mon 11:22:49 PM 41.6743 -77.2965 282° West 403 464 38,000  Level FlightAware ADS-B (CYYZ)
Mon 11:23:16 PM 41.6830 -77.3630 281° West 405 466 38,000  Level FlightAware ADS-B
Mon 11:23:39 PM 41.6902 -77.4194 279° West 404 465 38,000  Level FlightAware ADS-B (CYYZ)
Mon 11:23:54 PM 41.6940 -77.4550 279° West 405 466 38,000  Level FlightAware ADS-B
Mon 11:24:09 PM 41.6982 -77.4911 279° West 405 466 38,000  Level FlightAware ADS-B (CYYZ)
Mon 11:24:23 PM 41.7020 -77.5290 278° West 406 467 38,000  Level FlightAware ADS-B
Mon 11:24:54 PM 41.7081 -77.6063 275° West 407 468 38,000  Level FlightAware ADS-B (CYYZ)
Mon 11:25:01 PM 41.7090 -77.6210 275° West 409 471 38,000  Level FlightAware ADS-B
Mon 11:25:24 PM 41.7123 -77.6812 275° West 409 471 38,000  Level FlightAware ADS-B (CYYZ)
Mon 11:25:35 PM 41.7130 -77.7020 275° West 410 472 38,000  Level FlightAware ADS-B
Mon 11:25:54 PM 41.7163 -77.7559 275° West 409 471 38,000  Level FlightAware ADS-B (CYYZ)
Mon 11:26:12 PM 41.7190 -77.8020 276° West 410 472 38,000  Level FlightAware ADS-B
Mon 11:26:24 PM 41.7211 -77.8300 276° West 409 471 38,000  Level FlightAware ADS-B (CYYZ)
Mon 11:26:48 PM 41.7250 -77.8900 276° West 411 473 38,000  Level FlightAware ADS-B
Mon 11:26:54 PM 41.7265 -77.9070 276° West 408 470 38,000  Level FlightAware ADS-B (CYYZ)
Mon 11:27:18 PM 41.7310 -77.9660 277° West 410 472 38,000  Level FlightAware ADS-B
Mon 11:27:24 PM 41.7325 -77.9840 277° West 409 471 38,000  Level FlightAware ADS-B (CYYZ)
Mon 11:27:29 PM 41.7312 -77.9679 277° West 410 472 38,000  Level FlightAware ADS-B
Mon 11:27:53 PM 41.7390 -78.0588 277° West 408 470 38,000  Level FlightAware ADS-B (CYYZ)
Mon 11:27:54 PM 41.7390 -78.0540 278° West 410 472 38,000  Level FlightAware ADS-B
Mon 11:28:24 PM 41.7459 -78.1341 278° West 410 472 38,000  Level FlightAware ADS-B (CYYZ)
Mon 11:28:53 PM 41.7520 -78.2020 278° West 410 472 38,000  Level FlightAware ADS-B (CYYZ)
Mon 11:29:24 PM 41.7594 -78.2846 277° West 410 472 38,000  Level FlightAware ADS-B (CYYZ)
Mon 11:29:53 PM 41.7658 -78.3572 277° West 411 473 38,000  Level FlightAware ADS-B (CYYZ)
Mon 11:30:23 PM 41.7721 -78.4309 277° West 411 473 38,000  Level FlightAware ADS-B (CYYZ)
Mon 11:30:54 PM 41.7790 -78.5119 277° West 412 474 38,000  Level FlightAware ADS-B (CYYZ)
Mon 11:31:23 PM 41.7855 -78.5880 277° West 413 475 38,000  Level FlightAware ADS-B (CYYZ)
Mon 11:31:53 PM 41.7919 -78.6627 277° West 413 475 38,000  Level FlightAware ADS-B (CYYZ)
Mon 11:32:24 PM 41.7985 -78.7414 277° West 413 475 38,000  Level FlightAware ADS-B (CYYZ)
Mon 11:32:53 PM 41.8048 -78.8161 277° West 412 474 38,000  Level FlightAware ADS-B (CYYZ)
Mon 11:33:24 PM 41.8111 -78.8925 277° West 409 471 38,000  Level FlightAware ADS-B (CYYZ)
Mon 11:33:43 PM 41.8142 -78.9303 276° West 409 471 38,000  Level FlightAware ADS-B
Mon 11:33:54 PM 41.8175 -78.9693 277° West 406 467 38,000  Level FlightAware ADS-B (CYYZ)
Mon 11:34:23 PM 41.8236 -79.0426 277° West 404 465 38,000  Level FlightAware ADS-B (CYYZ)
Mon 11:34:28 PM 41.8244 -79.0521 276° West 405 466 38,000  Level FlightAware ADS-B
Mon 11:34:54 PM 41.8298 -79.1172 277° West 403 464 38,000  Level FlightAware ADS-B (CYYZ)
Mon 11:35:04 PM 41.8320 -79.1449 276° West 402 463 38,000  Level FlightAware ADS-B
Mon 11:35:23 PM 41.8359 -79.1920 277° West 402 463 38,000  Level FlightAware ADS-B (CYYZ)
Mon 11:35:44 PM 41.8391 -79.2316 276° West 402 463 38,000  Level FlightAware ADS-B
Mon 11:35:53 PM 41.8418 -79.2662 277° West 401 461 38,000  Level FlightAware ADS-B (CYYZ)
Mon 11:36:17 PM 41.8453 -79.3102 276° West 401 461 38,000  Level FlightAware ADS-B
Mon 11:36:24 PM 41.8478 -79.3404 277° West 401 461 38,000  Level FlightAware ADS-B (CYYZ)
Mon 11:36:53 PM 41.8537 -79.4146 277° West 401 461 38,000  Level FlightAware ADS-B (CYYZ)
Mon 11:36:56 PM 41.8542 -79.4214 276° West 401 461 38,000  Level FlightAware ADS-B
Mon 11:37:24 PM 41.8596 -79.4896 277° West 401 461 38,000  Level FlightAware ADS-B (CYYZ)
Mon 11:37:28 PM 41.8597 -79.4911 276° West 401 461 38,000  Level FlightAware ADS-B
Mon 11:37:54 PM 41.8654 -79.5632 277° West 401 461 38,000  Level FlightAware ADS-B (CYYZ)
Mon 11:38:09 PM 41.8680 -79.5958 276° West 401 461 38,000  Level FlightAware ADS-B
Mon 11:38:24 PM 41.8712 -79.6373 277° West 401 461 38,000  Level FlightAware ADS-B (CYYZ)
Mon 11:38:42 PM 41.8748 -79.6836 276° West 401 461 38,000  Level FlightAware ADS-B
Mon 11:38:54 PM 41.8769 -79.7113 276° West 401 461 38,000  Level FlightAware ADS-B (CYYZ)
Mon 11:39:23 PM 41.8824 -79.7848 276° West 401 461 38,000  Level FlightAware ADS-B (CYYZ)
Mon 11:39:24 PM 41.8823 -79.7834 276° West 401 461 38,000  Level FlightAware ADS-B
Mon 11:39:54 PM 41.8879 -79.8594 276° West 401 461 38,000  Level FlightAware ADS-B (CYYZ)
Mon 11:39:57 PM 41.8883 -79.8633 276° West 401 461 38,000  Level FlightAware ADS-B
Mon 11:40:23 PM 41.8933 -79.9328 276° West 399 459 38,000  Level FlightAware ADS-B (CYYZ)
Mon 11:40:53 PM 41.8988 -80.0072 276° West 398 458 38,000  Level FlightAware ADS-B (CYYZ)
Mon 11:41:24 PM 41.9041 -80.0804 276° West 398 458 38,000  Level FlightAware ADS-B (CYYZ)
Mon 11:41:50 PM 41.9089 -80.1456 276° West 398 458 38,000  Level FlightAware ADS-B
Mon 11:41:53 PM 41.9094 -80.1520 276° West 398 458 38,000  Level FlightAware ADS-B (CYYZ)
Mon 11:42:24 PM 41.9150 -80.2280 276° West 397 457 38,000  Level FlightAware ADS-B (CYYZ)
Mon 11:42:54 PM 41.9201 -80.2991 276° West 397 457 38,000  Level FlightAware ADS-B (CYYZ)
Mon 11:43:24 PM 41.9255 -80.3755 276° West 397 457 38,000  Level FlightAware ADS-B (CYYZ)
Mon 11:43:36 PM 41.9276 -80.4059 276° West 398 458 38,000  Level FlightAware ADS-B
Mon 11:43:53 PM 41.9296 -80.4333 276° West 397 457 38,000  Level FlightAware ADS-B (CYYZ)
Mon 11:44:23 PM 41.9355 -80.5180 276° West 397 457 38,000  Level FlightAware ADS-B (CYYZ)
Mon 11:44:36 PM 41.9378 -80.5523 275° West 397 457 38,000  Level FlightAware ADS-B
Mon 11:44:49 PM 41.9401 -80.5856 276° West 397 457 38,000  Level FlightAware ADS-B (CYYZ)
Mon 11:45:08 PM 41.9422 -80.6174 275° West 395 455 38,000  Level FlightAware ADS-B
Mon 11:45:50 PM 41.9498 -80.7309 275° West 391 450 38,000  Level FlightAware ADS-B (CYYZ)
Mon 11:46:00 PM 41.9514 -80.7565 275° West 390 449 38,000  Level FlightAware ADS-B
Mon 11:46:23 PM 41.9550 -80.8111 276° West 388 447 38,000  Level FlightAware ADS-B (CYYZ)
Mon 11:46:38 PM 41.9573 -80.8465 275° West 386 444 38,000  Level FlightAware ADS-B
Mon 11:46:53 PM 41.9591 -80.8745 275° West 385 443 38,000  Level FlightAware ADS-B (CYYZ)
Mon 11:47:13 PM 41.9626 -80.9285 275° West 382 440 38,000  Level FlightAware ADS-B
Mon 11:47:24 PM 41.9632 -80.9385 275° West 382 440 38,000  Level FlightAware ADS-B (CYYZ)
Mon 11:47:52 PM 41.9680 -81.0138 275° West 380 437 38,000  Level FlightAware ADS-B (CYYZ)
Mon 11:48:23 PM 41.9728 -81.0888 275° West 380 437 38,000  Level FlightAware ADS-B (CYYZ)
Mon 11:49:03 PM 41.9765 -81.1471 275° West 377 434 38,000  Level FlightAware ADS-B
Mon 11:51:46 PM 42.0010 -81.5454 275° West 375 432 38,000  Level FlightAware ADS-B (CYYZ)
Mon 11:52:50 PM 42.0090 -81.6817 275° West 374 430 38,000  Level FlightAware ADS-B (CYYZ)
Mon 11:54:58 PM 42.0281 -82.0133 275° West 375 432 38,000  Level FlightAware ADS-B (CYYZ)
Mon 11:55:29 PM 42.0317 -82.0768 275° West 374 430 38,000  Level FlightAware ADS-B (CYYZ)
Mon 11:55:58 PM 42.0359 -82.1519 275° West 375 432 38,000  Level FlightAware ADS-B (CYYZ)
Mon 11:56:07 PM 42.0366 -82.1653 275° West 374 430 38,000  Level FlightAware ADS-B (CYYZ)
Mon 11:56:22 PM 42.0383 -82.1959 274° West 375 432 38,000  Level FlightAware ADS-B
Mon 11:57:20 PM 42.0461 -82.3404 274° West 374 430 38,000  Level FlightAware ADS-B
Mon 11:57:28 PM 42.0470 -82.3575 275° West 372 428 38,000  Level FlightAware ADS-B (CYYZ)
Mon 11:57:55 PM 42.0502 -82.4171 275° West 372 428 38,000  Level FlightAware ADS-B (CYYZ)
Mon 11:58:28 PM 42.0541 -82.4935 274° West 371 427 38,000  Level FlightAware ADS-B (CYYZ)
Mon 11:58:37 PM 42.0551 -82.5133 274° West 370 426 38,000  Level FlightAware ADS-B (CYYZ)
Mon 11:59:38 PM 42.0613 -82.6391 274° West 370 426 38,000  Level FlightAware ADS-B
Tue 12:00:21 AM 42.0671 -82.7558 274° West 369 425 38,000  Level FlightAware ADS-B
Tue 12:00:22 AM 42.0671 -82.7572 274° West 368 423 38,000  Level FlightAware ADS-B (CYYZ)
Tue 12:00:58 AM 42.0708 -82.8316 274° West 367 422 38,000  Level FlightAware ADS-B (CYYZ)
Tue 12:01:02 AM 42.0717 -82.8498 274° West 368 423 38,000  Level FlightAware ADS-B
Tue 12:01:28 AM 42.0746 -82.9105 274° West 367 422 38,000  Level FlightAware ADS-B (CYYZ)
Tue 12:01:41 AM 42.0756 -82.9310 274° West 368 423 38,000  Level FlightAware ADS-B
Tue 12:01:58 AM 42.0770 -82.9597 274° West 367 422 38,000  Level FlightAware ADS-B (CYYZ)
Tue 12:02:14 AM 42.0795 -83.0126 274° West 368 423 38,000  Level FlightAware ADS-B
Tue 12:02:28 AM 42.0811 -83.0468 274° West 367 422 38,000  Level FlightAware ADS-B (CYYZ)
Tue 12:02:47 AM 42.0829 -83.0829 274° West 369 425 38,000  Level FlightAware ADS-B
Tue 12:02:59 AM 42.0843 -83.1148 274° West 368 423 38,000  Level FlightAware ADS-B (CYYZ)
Tue 12:03:29 AM 42.0876 -83.1852 274° West 368 423 38,000  Level FlightAware ADS-B (CYYZ)
Tue 12:03:58 AM 42.0907 -83.2533 274° West 368 423 38,000  Level FlightAware ADS-B (CYYZ)
Tue 12:04:06 AM 42.0911 -83.2616 274° West 369 425 38,000  Level FlightAware ADS-B
Tue 12:04:59 AM 42.0970 -83.3890 274° West 368 423 38,000  Level FlightAware ADS-B (CYYZ)
Tue 12:05:28 AM 42.1000 -83.4591 274° West 369 425 38,000  Level FlightAware ADS-B (CYYZ)
Tue 12:05:59 AM 42.1024 -83.5132 274° West 370 426 38,000  Level FlightAware ADS-B (CYYZ)
Tue 12:06:23 AM 42.1032 -83.5338 274° West 370 426 38,000  Level FlightAware ADS-B (CYYZ)
Tue 12:07:10 AM 42.1089 -83.6650 274° West 369 425 38,000  Level Cleveland Center
Tue 12:13:24 AM 42.1416 -84.5427 273° West 375 432 38,000  Level FlightAware ADS-B (KBHM)
Tue 12:13:54 AM 42.1448 -84.6342 272° West 376 433 38,000  Level FlightAware ADS-B (KBHM)
Tue 12:14:24 AM 42.1471 -84.7043 272° West 376 433 38,000  Level FlightAware ADS-B (KBHM)
Tue 12:14:55 AM 42.1493 -84.7738 272° West 375 432 38,000  Level FlightAware ADS-B (KBHM)
Tue 12:15:34 AM 42.1522 -84.8677 272° West 375 432 38,000  Level FlightAware ADS-B (KBHM)
Tue 12:16:04 AM 42.1543 -84.9378 272° West 376 433 38,000  Level FlightAware ADS-B (KBHM)
Tue 12:16:35 AM 42.1564 -85.0075 272° West 376 433 38,000  Level FlightAware ADS-B (KBHM)
Tue 12:17:14 AM 42.1590 -85.1007 272° West 377 434 38,000  Level FlightAware ADS-B (KBHM)
Tue 12:17:44 AM 42.1610 -85.1726 272° West 378 435 38,000  Level FlightAware ADS-B (KBHM)
Tue 12:18:15 AM 42.1631 -85.2436 272° West 378 435 38,000  Level FlightAware ADS-B (KBHM)
Tue 12:18:54 AM 42.1656 -85.3359 272° West 379 436 38,000  Level FlightAware ADS-B (KBHM)
Tue 12:19:25 AM 42.1674 -85.4062 272° West 379 436 38,000  Level FlightAware ADS-B (KBHM)
Tue 12:20:04 AM 42.1698 -85.5001 272° West 381 438 38,000  Level FlightAware ADS-B (KBHM)
Tue 12:20:35 AM 42.1716 -85.5736 272° West 381 438 38,000  Level FlightAware ADS-B (KBHM)
Tue 12:21:14 AM 42.1739 -85.6670 272° West 382 440 38,000  Level FlightAware ADS-B (KBHM)
Tue 12:21:44 AM 42.1756 -85.7386 272° West 382 440 38,000  Level FlightAware ADS-B (KBHM)
Tue 12:22:24 AM 42.1776 -85.8340 272° West 382 440 38,000  Level FlightAware ADS-B (KBHM)
Tue 12:22:54 AM 42.1790 -85.9039 272° West 382 440 38,000  Level FlightAware ADS-B (KBHM)
Tue 12:23:24 AM 42.1805 -85.9767 272° West 383 441 38,000  Level FlightAware ADS-B (KBHM)
Tue 12:23:55 AM 42.1819 -86.0491 272° West 383 441 38,000  Level FlightAware ADS-B (KBHM)
Tue 12:24:35 AM 42.1840 -86.1426 272° West 384 442 38,000  Level FlightAware ADS-B (KBHM)
Tue 12:25:14 AM 42.1860 -86.2381 272° West 384 442 38,000  Level FlightAware ADS-B (KBHM)
Tue 12:25:44 AM 42.1875 -86.3113 272° West 385 443 38,000  Level FlightAware ADS-B (KBHM)
Tue 12:26:14 AM 42.1887 -86.3799 271° West 386 444 38,000  Level FlightAware ADS-B (KBHM)
Tue 12:26:45 AM 42.1900 -86.4533 271° West 386 444 38,000  Level FlightAware ADS-B (KBHM)
Tue 12:27:25 AM 42.1915 -86.5519 271° West 387 445 38,000  Level FlightAware ADS-B (KBHM)
Tue 12:27:59 AM 42.1920 -86.5818 271° West 388 447 38,000 -261 Level FlightAware ADS-B
Tue 12:28:34 AM 42.1939 -86.7193 271° West 389 448 37,700 -1,292 Descending FlightAware ADS-B (KBHM)
Tue 12:29:04 AM 42.1951 -86.7901 271° West 387 445 36,600 -2,500 Descending FlightAware ADS-B (KBHM)
Tue 12:29:34 AM 42.1962 -86.8630 271° West 390 449 35,200 -2,852 Descending FlightAware ADS-B (KBHM)
Tue 12:30:05 AM 42.1972 -86.9372 271° West 396 456 33,700 -3,343 Descending FlightAware ADS-B (KBHM)
Tue 12:30:44 AM 42.1983 -87.0377 271° West 405 466 31,300 -3,646 Descending FlightAware ADS-B (KBHM)
Tue 12:31:24 AM 42.1993 -87.1395 271° West 412 474 28,900 -3,429 Descending FlightAware ADS-B (KBHM)
Tue 12:31:54 AM 42.1999 -87.2159 271° West 410 472 27,300 -2,951 Descending FlightAware ADS-B (KBHM)
Tue 12:32:25 AM 42.2004 -87.2900 271° West 401 461 25,900 -2,656 Descending FlightAware ADS-B (KBHM)
Tue 12:32:55 AM 42.2009 -87.3663 271° West 391 450 24,600 -2,471 Descending FlightAware ADS-B (KBHM)
Tue 12:33:33 AM 42.2016 -87.4555 271° West 381 438 23,100 -2,174 Descending FlightAware ADS-B
Tue 12:34:04 AM 42.2021 -87.5321 271° West 377 434 22,100 -1,065 Descending FlightAware ADS-B (KBHM)
Tue 12:34:35 AM 42.2026 -87.6045 271° West 389 448 22,000 -86 Descending FlightAware ADS-B (KBHM)
Tue 12:35:14 AM 42.2031 -87.6998 270° West 386 444 22,000  Level FlightAware ADS-B (KBHM)
Tue 12:35:44 AM 42.2034 -87.7693 271° West 348 400 22,000  Level FlightAware ADS-B (KBHM)
Tue 12:36:14 AM 42.2038 -87.8329 271° West 328 377 22,000 -1,300 Level FlightAware ADS-B (KBHM)
Tue 12:36:44 AM 42.2041 -87.8931 271° West 331 381 20,700 -3,639 Descending FlightAware ADS-B (KBHM)
Tue 12:37:15 AM 42.2045 -87.9594 270° West 361 415 18,300 -3,639 Descending FlightAware ADS-B (KBHM)
Tue 12:37:45 AM 42.2046 -88.0267 270° West 356 410 17,000 -2,000 Descending FlightAware ADS-B (KBHM)
Tue 12:38:24 AM 42.2048 -88.1119 270° West 332 382 16,000 -957 Descending FlightAware ADS-B (KBHM)
Tue 12:38:54 AM 42.2031 -88.1708 264° West 300 345 15,900 -200 Descending FlightAware ADS-B (KBHM)
Tue 12:39:24 AM 42.1967 -88.2244 258° West 275 316 15,800 -1,900 Descending FlightAware ADS-B (KBHM)
Tue 12:39:54 AM 42.1877 -88.2768 257° West 302 348 14,000 -2,557 Descending FlightAware ADS-B (KBHM)
Tue 12:40:25 AM 42.1777 -88.3338 256° West 307 353 13,200 -857 Descending FlightAware ADS-B (KBHM)
Tue 12:41:04 AM 42.1649 -88.4028 256° West 279 321 13,000 -261 Descending FlightAware ADS-B (KBHM)
Tue 12:41:34 AM 42.1554 -88.4542 256° West 277 319 12,900 -100 Descending FlightAware ADS-B (KBHM)
Tue 12:42:04 AM 42.1461 -88.5042 256° West 277 319 12,900  Level FlightAware ADS-B (KBHM)
Tue 12:42:35 AM 42.1365 -88.5551 256° West 276 318 12,900  Level FlightAware ADS-B (KBHM)
Tue 12:43:15 AM 42.1241 -88.6219 256° West 276 318 12,900  Level FlightAware ADS-B (KBHM)
Tue 12:43:50 AM 42.1132 -88.6801 256° West 275 316 12,900 -1,029 Level FlightAware ADS-B
Tue 12:44:25 AM 42.1023 -88.7368 256° West 267 307 11,700 -2,492 Descending FlightAware ADS-B (KBHM)
Tue 12:44:55 AM 42.0927 -88.7856 255° West 273 314 10,200 -2,880 Descending FlightAware ADS-B (KBHM)
Tue 12:45:15 AM 42.0867 -88.8166 256° West 274 315 9,300 -2,000 Descending FlightAware ADS-B (KBHM)
Tue 12:45:34 AM 42.0807 -88.8492 256° West 257 296 8,900 -1,231 Descending FlightAware ADS-B (KBHM)
Tue 12:45:54 AM 42.0755 -88.8772 256° West 238 274 8,500 -1,200 Descending FlightAware ADS-B (KBHM)
Tue 12:46:14 AM 42.0699 -88.9072 256° West 221 254 8,100 -1,200 Descending FlightAware ADS-B (KBHM)
Tue 12:46:34 AM 42.0640 -88.9328 246° West 213 245 7,700 -1,286 Descending FlightAware ADS-B (KBHM)
Tue 12:46:42 AM 42.0608 -88.9409 240° Southwest 212 244 7,500 -1,600 Descending FlightAware ADS-B
Tue 12:47:04 AM 42.0489 -88.9647 234° Southwest 214 246 6,900 -1,571 Descending FlightAware ADS-B (KBHM)
Tue 12:47:24 AM 42.0422 -88.9772 234° Southwest 213 245 6,400 -1,714 Descending FlightAware ADS-B (KBHM)
Tue 12:47:32 AM 42.0564 -88.9500 236° Southwest 214 246 6,100 -1,600 Descending FlightAware ADS-B
Tue 12:47:54 AM 42.0227 -89.0152 237° Southwest 205 236 5,600 -1,548 Descending FlightAware ADS-B (KBHM)
Tue 12:48:03 AM 42.0166 -89.0281 256° West 189 217 5,300 -1,440 Descending FlightAware ADS-B (KBHM)
Tue 12:48:44 AM 42.0037 -89.0714 270° West 187 215 4,400 -1,169 Descending FlightAware ADS-B (KBHM)
Tue 12:50:01 AM 42.0428 -89.1144 270° West 198 228 3,000 -788 Descending Chicago Center
Tue 12:51:01 AM 42.0839 -89.1039 11° North 172 198 2,600 -500 Descending Chicago Center
Tue 12:52:01 AM 42.1203 -89.0989 North 146 168 2,000 -600 Descending Chicago Center
Tue 12:54:00 AM 42.1833 -89.0833 109° East  Level FlightAware Approximate
Tue 01:01:00 AM 42.1954 -89.0972 109° East  Level Estimated
Tue 01:02:00 AM 42.1954 -89.0972 109° East  Level Estimated
Tue 01:03:00 AM 42.1954 -89.0972 109° East  Level Estimated
Tue 01:04:00 AM 42.1954 -89.0972 109° East  Level Estimated
Tue 01:05:00 AM 42.1954 -89.0972 109° East  Level Estimated
Tue 01:06:00 AM 42.1954 -89.0972 109° East  Level Estimated
Tue 01:07:00 AM 42.1954 -89.0972 109° East  Level Estimated
Tue 01:08:00 AM 42.1954 -89.0972 109° East  Level Estimated
Tue 01:09:00 AM 42.1954 -89.0972 109° East  Level Estimated
Tue 01:10:00 AM 42.1954 -89.0972 109° East  Level Estimated

Login

Don't have an account? Register now (free) for customized features, flight alerts, and more!